createdAt,value
2019-05-20T00:01:16.751Z,17.77
2019-05-20T00:03:44.305Z,18.98
2019-05-20T00:06:11.501Z,18.55
2019-05-20T00:08:38.665Z,20.23
2019-05-20T00:11:06.463Z,20.17
2019-05-20T00:13:33.614Z,19.37
2019-05-20T00:16:01.462Z,19.62
2019-05-20T00:18:28.995Z,19.42
2019-05-20T00:20:56.522Z,20.48
2019-05-20T00:23:25.392Z,19.07
2019-05-20T00:25:53.005Z,21.70
2019-05-20T00:28:20.616Z,21.42
2019-05-20T00:30:47.729Z,21.68
2019-05-20T00:33:15.413Z,22.35
2019-05-20T00:35:42.521Z,21.30
2019-05-20T00:38:10.845Z,23.32
2019-05-20T00:40:38.052Z,22.15
2019-05-20T00:43:05.423Z,22.82
2019-05-20T00:45:32.994Z,22.83
2019-05-20T00:48:01.265Z,23.07
2019-05-20T00:50:28.949Z,22.55
2019-05-20T00:52:57.556Z,22.90
2019-05-20T00:55:25.329Z,23.47
2019-05-20T00:57:52.518Z,24.80
2019-05-20T01:00:21.813Z,24.12
2019-05-20T01:02:56.419Z,23.05
2019-05-20T01:05:17.707Z,22.35
2019-05-20T01:07:45.295Z,22.10
2019-05-20T01:10:13.108Z,23.22
2019-05-20T01:12:40.351Z,24.07
2019-05-20T01:15:07.716Z,23.60
2019-05-20T01:17:34.850Z,21.57
2019-05-20T01:20:02.339Z,21.05
2019-05-20T01:22:29.523Z,20.90
2019-05-20T01:24:58.593Z,22.13
2019-05-20T01:27:26.076Z,21.52
2019-05-20T01:29:53.158Z,23.85
2019-05-20T01:32:20.198Z,21.60
2019-05-20T01:34:47.285Z,21.93
2019-05-20T01:37:14.500Z,20.97
2019-05-20T01:39:41.743Z,21.45
2019-05-20T01:42:09.306Z,21.17
2019-05-20T01:44:36.619Z,22.58
2019-05-20T01:47:03.704Z,21.48
2019-05-20T01:49:33.219Z,20.17
2019-05-20T01:52:01.768Z,23.38
2019-05-20T01:54:28.716Z,23.15
2019-05-20T01:56:57.749Z,24.63
2019-05-20T01:59:25.064Z,24.52
2019-05-20T02:01:52.251Z,22.30
2019-05-20T02:04:19.261Z,21.52
2019-05-20T02:06:46.877Z,23.65
2019-05-20T02:09:14.001Z,22.02
2019-05-20T02:11:42.890Z,23.25
2019-05-20T02:14:15.188Z,25.48
2019-05-20T02:16:42.975Z,24.35
2019-05-20T02:19:10.141Z,24.75
2019-05-20T02:21:37.551Z,23.70
2019-05-20T02:24:05.922Z,24.80
2019-05-20T02:26:32.946Z,24.20
2019-05-20T02:28:59.957Z,22.42
2019-05-20T02:31:28.996Z,25.15
2019-05-20T02:33:56.162Z,26.07
2019-05-20T02:36:23.384Z,25.27
2019-05-20T02:38:50.875Z,27.73
2019-05-20T02:41:17.995Z,26.73
2019-05-20T02:43:46.275Z,26.48
2019-05-20T02:46:13.322Z,26.62
2019-05-20T02:48:40.636Z,27.15
2019-05-20T02:51:10.397Z,28.25
2019-05-20T02:53:39.313Z,26.77
2019-05-20T02:56:07.653Z,26.90
2019-05-20T02:58:35.944Z,25.85
2019-05-20T03:01:03.522Z,25.52
2019-05-20T03:03:32.161Z,28.12
2019-05-20T03:05:59.112Z,27.05
2019-05-20T03:08:26.270Z,29.20
2019-05-20T03:10:53.299Z,29.05
2019-05-20T03:13:20.574Z,27.70
2019-05-20T03:15:48.193Z,27.17
2019-05-20T03:18:15.673Z,26.97
2019-05-20T03:20:42.839Z,26.35
2019-05-20T03:23:10.553Z,27.05
2019-05-20T03:25:37.746Z,27.52
2019-05-20T03:28:04.914Z,28.10
2019-05-20T03:30:31.845Z,29.05
2019-05-20T03:32:59.070Z,29.05
2019-05-20T03:35:26.291Z,27.55
2019-05-20T03:37:53.465Z,26.68
2019-05-20T03:40:20.563Z,27.73
2019-05-20T03:42:47.486Z,27.98
2019-05-20T03:45:14.660Z,27.77
2019-05-20T03:47:41.807Z,27.07
2019-05-20T03:50:08.927Z,27.05
2019-05-20T03:52:36.083Z,28.38
2019-05-20T03:55:03.449Z,30.37
2019-05-20T03:57:32.561Z,28.95
2019-05-20T03:59:59.640Z,27.93
2019-05-20T04:02:26.808Z,29.27
2019-05-20T04:05:01.969Z,27.83
2019-05-20T04:07:23.213Z,29.90
2019-05-20T04:09:50.163Z,30.52
2019-05-20T04:12:17.348Z,30.35
2019-05-20T04:14:46.093Z,29.75
2019-05-20T04:17:13.438Z,28.73
2019-05-20T04:19:40.645Z,30.08
2019-05-20T04:22:07.831Z,29.98
2019-05-20T04:24:35.287Z,30.75
2019-05-20T04:27:02.423Z,30.70
2019-05-20T04:29:30.067Z,28.02
2019-05-20T04:31:57.237Z,29.27
2019-05-20T04:34:24.890Z,30.77
2019-05-20T04:36:51.948Z,31.80
2019-05-20T04:39:20.727Z,28.32
2019-05-20T04:41:48.189Z,31.25
2019-05-20T04:44:15.368Z,31.52
2019-05-20T04:46:44.686Z,31.90
2019-05-20T04:49:11.921Z,31.30
2019-05-20T04:51:39.655Z,32.42
2019-05-20T04:54:07.708Z,35.10
2019-05-20T04:56:35.410Z,32.67
2019-05-20T04:59:02.945Z,33.15
2019-05-20T05:01:30.526Z,32.42
2019-05-20T05:03:57.637Z,32.17
2019-05-20T05:06:25.222Z,32.50
2019-05-20T05:08:53.080Z,33.98
2019-05-20T05:11:20.641Z,33.27
2019-05-20T05:13:48.648Z,33.40
2019-05-20T05:16:18.003Z,33.53
2019-05-20T05:18:47.079Z,36.68
2019-05-20T05:21:16.062Z,34.25
2019-05-20T05:23:58.072Z,35.07
2019-05-20T05:26:13.344Z,35.83
2019-05-20T05:28:40.309Z,34.65
2019-05-20T05:31:07.850Z,35.28
2019-05-20T05:33:35.109Z,35.48
2019-05-20T05:36:02.299Z,33.73
2019-05-20T05:38:31.209Z,37.95
2019-05-20T05:40:59.572Z,34.73
2019-05-20T05:43:26.784Z,39.00
2019-05-20T05:45:54.347Z,44.95
2019-05-20T05:48:21.507Z,49.63
2019-05-20T05:50:49.633Z,53.95
2019-05-20T05:53:17.542Z,54.38
2019-05-20T05:55:44.790Z,48.50
2019-05-20T05:58:11.939Z,45.85
2019-05-20T06:00:38.908Z,47.40
2019-05-20T06:03:06.052Z,45.80
2019-05-20T06:05:33.868Z,43.95
2019-05-20T06:08:01.019Z,47.60
2019-05-20T06:10:30.230Z,43.02
2019-05-20T06:12:57.170Z,43.40
2019-05-20T06:15:24.380Z,41.10
2019-05-20T06:17:51.874Z,41.85
2019-05-20T06:20:20.958Z,40.90
2019-05-20T06:22:48.021Z,38.98
2019-05-20T06:25:16.074Z,41.53
2019-05-20T06:27:43.150Z,39.85
2019-05-20T06:30:10.552Z,39.20
2019-05-20T06:32:37.655Z,38.10
2019-05-20T06:35:07.463Z,36.23
2019-05-20T06:37:37.025Z,38.25
2019-05-20T06:40:10.583Z,37.65
2019-05-20T06:42:38.501Z,35.73
2019-05-20T06:45:06.616Z,34.30
2019-05-20T06:47:35.665Z,34.73
2019-05-20T06:50:03.189Z,34.80
2019-05-20T06:52:35.771Z,31.68
2019-05-20T06:54:59.428Z,32.00
2019-05-20T06:57:27.463Z,28.85
2019-05-20T06:59:54.820Z,27.77
2019-05-20T07:02:22.016Z,29.37
2019-05-20T07:04:49.469Z,28.05
2019-05-20T07:07:20.974Z,25.65
2019-05-20T07:09:45.860Z,26.17
2019-05-20T07:12:14.216Z,26.55
2019-05-20T07:14:41.229Z,25.43
2019-05-20T07:17:08.757Z,26.23
2019-05-20T07:19:35.942Z,25.65
2019-05-20T07:22:03.077Z,27.17
2019-05-20T07:24:30.644Z,26.23
2019-05-20T07:26:57.694Z,26.55
2019-05-20T07:29:25.244Z,27.25
2019-05-20T07:31:52.381Z,26.50
2019-05-20T07:34:19.961Z,26.73
2019-05-20T07:37:01.895Z,24.32
2019-05-20T07:39:15.996Z,28.27
2019-05-20T07:41:43.944Z,24.85
2019-05-20T07:44:10.912Z,24.83
2019-05-20T07:46:37.965Z,25.15
2019-05-20T07:49:06.128Z,24.37
2019-05-20T07:51:34.988Z,26.85
2019-05-20T07:54:03.055Z,27.30
2019-05-20T07:56:32.795Z,23.80
2019-05-20T07:59:01.236Z,25.95
2019-05-20T08:01:29.655Z,25.47
2019-05-20T08:03:56.795Z,24.70
2019-05-20T08:06:24.213Z,26.77
2019-05-20T08:08:51.309Z,27.25
2019-05-20T08:11:20.018Z,25.82
2019-05-20T08:13:47.037Z,28.70
2019-05-20T08:16:14.224Z,27.15
2019-05-20T08:18:42.747Z,26.20
2019-05-20T08:21:10.452Z,26.45
2019-05-20T08:23:37.580Z,23.83
2019-05-20T08:26:06.087Z,26.20
2019-05-20T08:28:35.187Z,26.62
2019-05-20T08:31:02.376Z,26.23
2019-05-20T08:33:29.577Z,27.77
2019-05-20T08:35:56.726Z,26.47
2019-05-20T08:38:24.314Z,27.07
2019-05-20T08:40:53.557Z,29.30
2019-05-20T08:43:22.587Z,26.50
2019-05-20T08:45:49.717Z,26.50
2019-05-20T08:50:43.502Z,25.15
2019-05-20T08:53:10.548Z,27.07
2019-05-20T08:55:37.721Z,22.27
2019-05-20T08:58:07.211Z,24.12
2019-05-20T09:00:34.342Z,21.55
2019-05-20T09:03:01.694Z,24.87
2019-05-20T09:05:29.047Z,22.77
2019-05-20T09:08:03.165Z,26.75
2019-05-20T09:12:51.310Z,26.00
2019-05-20T09:15:19.214Z,23.57
2019-05-20T09:17:46.326Z,24.65
2019-05-20T09:20:13.707Z,26.65
2019-05-20T09:25:09.725Z,21.25
2019-05-20T09:27:36.747Z,26.50
2019-05-20T09:32:30.993Z,24.52
2019-05-20T09:34:58.645Z,27.13
2019-05-20T09:37:25.691Z,27.62
2019-05-20T09:39:53.509Z,27.82
2019-05-20T09:42:20.830Z,26.75
2019-05-20T09:44:48.506Z,29.00
2019-05-20T09:47:15.691Z,28.07
2019-05-20T09:49:43.415Z,27.02
2019-05-20T09:52:10.677Z,28.75
2019-05-20T09:54:38.429Z,29.12
2019-05-20T09:57:06.167Z,30.02
2019-05-20T09:59:42.733Z,29.27
2019-05-20T10:02:02.185Z,28.50
2019-05-20T10:04:29.263Z,27.22
2019-05-20T10:06:56.784Z,27.33
2019-05-20T10:09:23.951Z,25.88
2019-05-20T10:11:52.573Z,27.42
2019-05-20T10:14:19.805Z,26.57
2019-05-20T10:16:47.013Z,27.77
2019-05-20T10:19:14.632Z,28.92
2019-05-20T10:21:41.728Z,24.77
2019-05-20T10:24:10.085Z,26.90
2019-05-20T10:26:37.092Z,24.93
2019-05-20T10:29:07.936Z,24.95
2019-05-20T10:31:36.269Z,25.30
2019-05-20T10:34:03.868Z,25.70
2019-05-20T10:36:31.078Z,24.05
2019-05-20T10:38:59.631Z,24.37
2019-05-20T10:41:29.618Z,22.32
2019-05-20T10:43:57.865Z,23.95
2019-05-20T10:46:25.743Z,21.30
2019-05-20T10:48:53.775Z,23.87
2019-05-20T10:51:21.286Z,22.58
2019-05-20T10:53:48.893Z,21.12
2019-05-20T10:56:16.393Z,23.62
2019-05-20T11:01:10.922Z,21.65
2019-05-20T11:03:38.639Z,21.10
2019-05-20T11:06:06.024Z,25.25
2019-05-20T11:08:35.175Z,22.55
2019-05-20T11:11:02.159Z,20.88
2019-05-20T11:13:29.625Z,24.37
2019-05-20T11:15:56.725Z,23.65
2019-05-20T11:18:24.644Z,22.85
2019-05-20T11:20:53.920Z,23.00
2019-05-20T11:23:20.966Z,26.02
2019-05-20T11:25:50.358Z,23.95
2019-05-20T11:28:17.279Z,24.00
2019-05-20T11:30:44.971Z,24.60
2019-05-20T11:33:12.420Z,25.80
2019-05-20T11:35:39.484Z,22.20
2019-05-20T11:38:06.954Z,22.85
2019-05-20T11:40:34.084Z,22.85
2019-05-20T11:43:01.217Z,22.98
2019-05-20T11:45:28.921Z,22.00
2019-05-20T11:47:56.118Z,21.10
2019-05-20T11:50:23.318Z,22.48
2019-05-20T11:52:50.845Z,23.90
2019-05-20T11:55:18.421Z,23.73
2019-05-20T11:57:45.786Z,23.87
2019-05-20T12:00:13.400Z,22.02
2019-05-20T12:02:41.690Z,23.02
2019-05-20T12:05:09.026Z,22.15
2019-05-20T12:07:36.227Z,21.35
2019-05-20T12:12:29.684Z,20.50
2019-05-20T12:14:56.802Z,22.13
2019-05-20T12:19:51.970Z,21.87
2019-05-20T12:22:19.101Z,22.58
2019-05-20T12:24:46.818Z,20.90
2019-05-20T12:27:14.124Z,19.50
2019-05-20T12:29:41.240Z,17.55
2019-05-20T12:32:08.830Z,20.40
2019-05-20T12:34:37.000Z,22.15
2019-05-20T12:37:04.551Z,24.63
2019-05-20T12:39:31.739Z,27.00
2019-05-20T12:41:58.863Z,26.83
2019-05-20T12:44:28.220Z,28.73
2019-05-20T12:46:55.383Z,30.27
2019-05-20T12:49:22.890Z,29.60
2019-05-20T12:51:50.362Z,31.37
2019-05-20T12:54:18.081Z,33.70
2019-05-20T12:56:45.304Z,34.20
2019-05-20T12:59:12.488Z,37.88
2019-05-20T13:01:39.547Z,41.68
2019-05-20T13:04:06.926Z,34.83
2019-05-20T13:06:35.464Z,36.00
2019-05-20T13:09:03.141Z,33.33
2019-05-20T13:11:30.289Z,35.70
2019-05-20T13:13:57.414Z,30.45
2019-05-20T13:16:26.227Z,39.90
2019-05-20T13:18:56.031Z,42.00
2019-05-20T13:21:22.372Z,39.13
2019-05-20T13:23:49.524Z,28.83
2019-05-20T13:26:17.014Z,27.97
2019-05-20T13:28:44.336Z,19.67
2019-05-20T13:31:11.337Z,22.45
2019-05-20T13:33:38.544Z,17.48
2019-05-20T13:36:05.754Z,14.18
2019-05-20T13:38:34.047Z,13.85
2019-05-20T13:41:01.201Z,15.25
2019-05-20T13:43:28.236Z,11.45
2019-05-20T13:45:55.415Z,12.90
2019-05-20T13:48:22.623Z,12.47
2019-05-20T13:50:49.805Z,13.55
2019-05-20T13:53:18.357Z,12.53
2019-05-20T13:55:45.750Z,13.53
2019-05-20T13:58:12.960Z,13.33
2019-05-20T14:00:40.105Z,12.23
2019-05-20T14:03:08.622Z,13.10
2019-05-20T14:05:35.743Z,12.88
2019-05-20T14:08:03.726Z,12.55
2019-05-20T14:10:30.866Z,12.15
2019-05-20T14:12:58.149Z,13.40
2019-05-20T14:15:25.404Z,15.48
2019-05-20T14:17:52.690Z,14.17
2019-05-20T14:20:19.792Z,16.52
2019-05-20T14:22:46.972Z,16.17
2019-05-20T14:25:14.314Z,16.20
2019-05-20T14:27:41.510Z,15.93
2019-05-20T14:30:09.215Z,15.35
2019-05-20T14:32:36.573Z,14.33
2019-05-20T14:35:03.733Z,17.10
2019-05-20T14:37:30.934Z,17.90
2019-05-20T14:40:00.455Z,20.23
2019-05-20T14:42:27.622Z,17.12
2019-05-20T14:44:56.461Z,15.65
2019-05-20T14:47:23.458Z,14.90
2019-05-20T14:49:50.863Z,14.80
2019-05-20T14:52:18.094Z,15.83
2019-05-20T14:54:45.216Z,15.60
2019-05-20T14:57:12.742Z,14.10
2019-05-20T14:59:40.333Z,12.05
2019-05-20T15:02:07.500Z,12.50
2019-05-20T15:04:34.916Z,13.48
2019-05-20T15:07:02.410Z,11.37
2019-05-20T15:09:29.932Z,12.70
2019-05-20T15:11:57.201Z,11.93
2019-05-20T15:14:24.382Z,10.48
2019-05-20T15:16:51.510Z,10.85
2019-05-20T15:19:18.665Z,12.03
2019-05-20T15:21:47.077Z,11.88
2019-05-20T15:24:14.711Z,12.70
2019-05-20T15:26:41.931Z,11.63
2019-05-20T15:29:25.471Z,11.93
2019-05-20T15:31:39.153Z,11.28
2019-05-20T15:34:06.974Z,10.93
2019-05-20T15:36:34.041Z,12.05
2019-05-20T15:39:01.588Z,12.10
2019-05-20T15:41:29.399Z,12.27
2019-05-20T15:43:57.338Z,15.95
2019-05-20T15:46:24.633Z,14.28
2019-05-20T15:48:51.849Z,16.40
2019-05-20T15:51:20.590Z,15.60
2019-05-20T15:53:47.759Z,17.62
2019-05-20T15:56:15.128Z,19.30
2019-05-20T15:58:42.153Z,18.12
2019-05-20T16:01:09.285Z,18.55
2019-05-20T16:03:36.329Z,19.90
2019-05-20T16:06:04.029Z,20.20
2019-05-20T16:08:31.273Z,20.68
2019-05-20T16:10:58.333Z,21.80
2019-05-20T16:13:25.541Z,22.13
2019-05-20T16:15:54.205Z,23.02
2019-05-20T16:18:21.254Z,20.27
2019-05-20T16:20:48.443Z,17.27
2019-05-20T16:23:15.983Z,16.12
2019-05-20T16:25:43.164Z,17.60
2019-05-20T16:28:11.041Z,16.87
2019-05-20T16:30:38.285Z,19.07
2019-05-20T16:33:06.514Z,17.95
2019-05-20T16:35:33.659Z,17.10
2019-05-20T16:38:01.283Z,18.65
2019-05-20T16:40:28.884Z,18.35
2019-05-20T16:42:56.392Z,16.50
2019-05-20T16:45:23.630Z,20.10
2019-05-20T16:47:50.795Z,24.60
2019-05-20T16:50:18.037Z,24.10
2019-05-20T16:52:45.674Z,25.92
2019-05-20T16:55:12.924Z,23.83
2019-05-20T16:57:40.367Z,22.27
2019-05-20T17:00:20.950Z,27.43
2019-05-20T17:02:36.951Z,26.48
2019-05-20T17:05:04.353Z,25.57
2019-05-20T17:07:32.098Z,30.45
2019-05-20T17:10:00.137Z,31.02
2019-05-20T17:12:27.289Z,34.30
2019-05-20T17:14:54.919Z,32.85
2019-05-20T17:17:22.304Z,33.23
2019-05-20T17:19:51.049Z,35.70
2019-05-20T17:22:18.754Z,37.65
2019-05-20T17:24:46.181Z,39.03
2019-05-20T17:27:13.362Z,42.23
2019-05-20T17:29:40.467Z,38.38
2019-05-20T17:32:07.939Z,44.20
2019-05-20T17:34:35.438Z,38.53
2019-05-20T17:37:02.984Z,40.83
2019-05-20T17:39:30.264Z,47.05
2019-05-20T17:41:58.922Z,43.02
2019-05-20T17:44:26.482Z,50.65
2019-05-20T17:46:53.523Z,43.63
2019-05-20T17:49:20.644Z,46.55
2019-05-20T17:51:48.664Z,47.08
2019-05-20T17:54:15.913Z,45.73
2019-05-20T17:56:43.145Z,44.57
2019-05-20T17:59:10.289Z,45.15
2019-05-20T18:01:38.240Z,49.65
2019-05-20T18:04:05.419Z,49.73
2019-05-20T18:06:32.902Z,45.38
2019-05-20T18:09:01.052Z,47.00
2019-05-20T18:11:28.063Z,47.03
2019-05-20T18:13:56.372Z,50.65
2019-05-20T18:16:24.007Z,51.15
2019-05-20T18:18:51.571Z,53.50
2019-05-20T18:21:18.840Z,51.73
2019-05-20T18:23:46.063Z,44.00
2019-05-20T18:26:13.548Z,50.92
2019-05-20T18:28:40.590Z,52.35
2019-05-20T18:31:07.772Z,48.43
2019-05-20T18:33:35.278Z,40.20
2019-05-20T18:36:02.370Z,42.03
2019-05-20T18:38:29.505Z,42.60
2019-05-20T18:40:57.028Z,45.78
2019-05-20T18:43:24.152Z,29.65
2019-05-20T18:45:52.953Z,38.35
2019-05-20T18:48:21.815Z,38.35
2019-05-20T18:50:49.256Z,36.53
2019-05-20T18:53:16.451Z,39.18
2019-05-20T18:55:43.665Z,45.10
2019-05-20T18:58:11.380Z,45.67
2019-05-20T19:00:40.225Z,46.55
2019-05-20T19:03:07.777Z,55.23
2019-05-20T19:05:35.448Z,62.15
2019-05-20T19:08:02.976Z,60.88
2019-05-20T19:10:30.087Z,55.10
2019-05-20T19:13:20.058Z,56.48
2019-05-20T19:15:47.537Z,53.35
2019-05-20T19:18:14.842Z,45.63
2019-05-20T19:20:42.056Z,39.70
2019-05-20T19:23:09.035Z,40.77
2019-05-20T19:25:38.125Z,40.95
2019-05-20T19:28:05.423Z,40.80
2019-05-20T19:30:33.562Z,37.20
2019-05-20T19:33:00.956Z,41.98
2019-05-20T19:35:28.656Z,39.55
2019-05-20T19:37:55.964Z,38.15
2019-05-20T19:40:23.460Z,35.35
2019-05-20T19:42:50.594Z,32.85
2019-05-20T19:45:17.896Z,37.80
2019-05-20T19:47:45.596Z,34.40
2019-05-20T19:50:13.046Z,28.62
2019-05-20T19:52:40.213Z,27.50
2019-05-20T19:55:07.804Z,24.72
2019-05-20T19:57:34.925Z,25.37
2019-05-20T20:00:02.408Z,23.52
2019-05-20T20:02:29.718Z,24.50
2019-05-20T20:04:56.946Z,21.05
2019-05-20T20:07:24.336Z,18.55
2019-05-20T20:09:51.923Z,16.40
2019-05-20T20:12:19.545Z,14.60
2019-05-20T20:14:46.849Z,14.80
2019-05-20T20:17:14.268Z,12.73
2019-05-20T20:19:42.593Z,12.47
2019-05-20T20:22:11.143Z,15.08
2019-05-20T20:24:38.653Z,16.02
2019-05-20T20:27:06.276Z,15.68
2019-05-20T20:29:34.385Z,13.30
2019-05-20T20:32:03.091Z,15.60
2019-05-20T20:34:31.607Z,14.60
2019-05-20T20:36:58.719Z,16.20
2019-05-20T20:39:26.516Z,16.07
2019-05-20T20:41:54.043Z,16.48
2019-05-20T20:44:21.229Z,17.17
2019-05-20T20:46:50.688Z,13.30
2019-05-20T20:49:18.085Z,13.80
2019-05-20T20:51:45.218Z,15.05
2019-05-20T20:54:46.530Z,15.35
2019-05-20T20:57:13.608Z,17.37
2019-05-20T20:59:40.656Z,15.08
2019-05-20T21:02:07.932Z,13.22
2019-05-20T21:04:35.048Z,13.53
2019-05-20T21:07:03.740Z,11.57
2019-05-20T21:09:32.678Z,10.60
2019-05-20T21:12:01.502Z,10.23
2019-05-20T21:14:32.397Z,9.68
2019-05-20T21:17:00.703Z,8.50
2019-05-20T21:19:27.812Z,7.53
2019-05-20T21:21:55.268Z,7.50
2019-05-20T21:24:22.936Z,8.00
2019-05-20T21:26:51.688Z,8.88
2019-05-20T21:29:18.867Z,7.75
2019-05-20T21:31:45.990Z,8.60
2019-05-20T21:34:13.079Z,9.10
2019-05-20T21:36:47.606Z,9.80
2019-05-20T21:39:09.297Z,9.83
2019-05-20T21:41:36.683Z,12.75
2019-05-20T21:44:03.993Z,13.93
2019-05-20T21:46:32.468Z,14.95
2019-05-20T21:48:59.714Z,15.48
2019-05-20T21:51:27.422Z,17.30
2019-05-20T21:53:55.966Z,18.77
2019-05-20T21:56:23.232Z,18.67
2019-05-20T21:58:52.338Z,18.37
2019-05-20T22:01:19.407Z,19.62
2019-05-20T22:03:46.620Z,19.40
2019-05-20T22:06:14.605Z,17.60
2019-05-20T22:08:41.744Z,21.35
2019-05-20T22:11:11.807Z,19.37
2019-05-20T22:13:38.641Z,17.98
2019-05-20T22:16:05.872Z,22.58
2019-05-20T22:18:33.049Z,20.55
2019-05-20T22:21:01.451Z,24.05
2019-05-20T22:23:36.643Z,24.47
2019-05-20T22:26:03.860Z,27.40
2019-05-20T22:28:33.058Z,27.37
2019-05-20T22:31:00.508Z,34.30
2019-05-20T22:33:40.430Z,36.45
2019-05-20T22:35:56.783Z,34.13
2019-05-20T22:38:23.891Z,32.17
2019-05-20T22:40:51.469Z,34.48
2019-05-20T22:43:18.745Z,33.67
2019-05-20T22:45:46.281Z,29.63
2019-05-20T22:48:13.849Z,27.13
2019-05-20T22:50:41.507Z,26.82
2019-05-20T22:53:11.075Z,22.77
2019-05-20T22:55:38.064Z,18.07
2019-05-20T22:58:05.227Z,11.67
2019-05-20T23:00:32.340Z,11.68
2019-05-20T23:02:59.574Z,8.03
2019-05-20T23:05:26.998Z,7.83
2019-05-20T23:07:54.618Z,7.15
2019-05-20T23:10:23.168Z,6.17
2019-05-20T23:12:50.665Z,5.90
2019-05-20T23:15:18.138Z,6.20
2019-05-20T23:17:45.089Z,5.17
2019-05-20T23:20:12.847Z,5.95
2019-05-20T23:22:40.281Z,6.50
2019-05-20T23:25:07.660Z,5.08
2019-05-20T23:27:34.776Z,5.28
2019-05-20T23:30:01.895Z,5.10
2019-05-20T23:32:29.908Z,5.55
2019-05-20T23:34:56.965Z,5.42
2019-05-20T23:37:24.231Z,5.90
2019-05-20T23:39:51.864Z,6.03
2019-05-20T23:42:18.958Z,5.78
2019-05-20T23:44:46.161Z,5.60
2019-05-20T23:47:14.236Z,6.40
2019-05-20T23:49:42.729Z,6.33
2019-05-20T23:52:09.907Z,5.72
2019-05-20T23:54:39.203Z,6.58
2019-05-20T23:57:06.745Z,6.80
2019-05-20T23:59:33.818Z,7.05
